sensor_id;sensor_type;location;lat;lon;timestamp;temperature;humidity
9448;DHT22;4762;48.128;11.376;2022-08-19T00:00:56;17.90;99.20
9448;DHT22;4762;48.128;11.376;2022-08-19T00:16:01;18.00;98.60
9448;DHT22;4762;48.128;11.376;2022-08-19T00:18:03;18.00;98.70
9448;DHT22;4762;48.128;11.376;2022-08-19T00:20:06;18.10;98.90
9448;DHT22;4762;48.128;11.376;2022-08-19T00:22:09;18.10;98.50
9448;DHT22;4762;48.128;11.376;2022-08-19T00:24:13;18.10;98.60
9448;DHT22;4762;48.128;11.376;2022-08-19T00:26:16;18.20;98.30
9448;DHT22;4762;48.128;11.376;2022-08-19T00:28:20;18.20;98.20
9448;DHT22;4762;48.128;11.376;2022-08-19T00:30:26;18.20;98.20
9448;DHT22;4762;48.128;11.376;2022-08-19T00:32:31;18.20;97.80
9448;DHT22;4762;48.128;11.376;2022-08-19T00:34:34;18.20;97.90
9448;DHT22;4762;48.128;11.376;2022-08-19T00:36:36;18.30;98.00
9448;DHT22;4762;48.128;11.376;2022-08-19T00:38:39;18.30;97.80
9448;DHT22;4762;48.128;11.376;2022-08-19T00:40:45;18.40;97.50
9448;DHT22;4762;48.128;11.376;2022-08-19T00:42:48;18.20;97.80
9448;DHT22;4762;48.128;11.376;2022-08-19T00:44:51;18.20;98.00
9448;DHT22;4762;48.128;11.376;2022-08-19T00:46:54;18.30;97.50
9448;DHT22;4762;48.128;11.376;2022-08-19T00:48:56;18.30;97.70
9448;DHT22;4762;48.128;11.376;2022-08-19T00:50:59;18.10;98.30
9448;DHT22;4762;48.128;11.376;2022-08-19T00:53:01;18.30;97.70
9448;DHT22;4762;48.128;11.376;2022-08-19T00:55:06;18.30;97.70
9448;DHT22;4762;48.128;11.376;2022-08-19T00:57:12;18.30;97.40
9448;DHT22;4762;48.128;11.376;2022-08-19T00:59:14;18.20;97.60
9448;DHT22;4762;48.128;11.376;2022-08-19T01:01:16;18.20;98.00
9448;DHT22;4762;48.128;11.376;2022-08-19T01:03:20;18.30;97.90
9448;DHT22;4762;48.128;11.376;2022-08-19T01:05:23;18.40;97.70
9448;DHT22;4762;48.128;11.376;2022-08-19T01:07:24;18.40;97.60
9448;DHT22;4762;48.128;11.376;2022-08-19T01:11:46;18.30;97.70
9448;DHT22;4762;48.128;11.376;2022-08-19T01:13:52;18.20;97.60
9448;DHT22;4762;48.128;11.376;2022-08-19T01:15:58;18.20;97.60
9448;DHT22;4762;48.128;11.376;2022-08-19T01:18:00;18.20;97.20
9448;DHT22;4762;48.128;11.376;2022-08-19T01:20:03;18.30;97.50
9448;DHT22;4762;48.128;11.376;2022-08-19T01:22:16;18.30;97.50
9448;DHT22;4762;48.128;11.376;2022-08-19T01:24:27;18.40;97.40
9448;DHT22;4762;48.128;11.376;2022-08-19T01:26:34;18.20;97.30
9448;DHT22;4762;48.128;11.376;2022-08-19T01:28:48;18.20;97.40
9448;DHT22;4762;48.128;11.376;2022-08-19T01:48:13;18.10;98.00
9448;DHT22;4762;48.128;11.376;2022-08-19T01:50:18;18.00;98.40
9448;DHT22;4762;48.128;11.376;2022-08-19T01:52:21;17.90;98.10
9448;DHT22;4762;48.128;11.376;2022-08-19T01:54:26;18.00;98.00
9448;DHT22;4762;48.128;11.376;2022-08-19T01:56:28;17.90;98.00
9448;DHT22;4762;48.128;11.376;2022-08-19T01:58:34;17.90;98.10
9448;DHT22;4762;48.128;11.376;2022-08-19T02:00:36;18.00;98.20
9448;DHT22;4762;48.128;11.376;2022-08-19T02:02:38;18.00;98.10
9448;DHT22;4762;48.128;11.376;2022-08-19T02:04:40;18.00;97.90
9448;DHT22;4762;48.128;11.376;2022-08-19T02:06:44;18.00;97.90
9448;DHT22;4762;48.128;11.376;2022-08-19T02:08:47;18.00;97.80
9448;DHT22;4762;48.128;11.376;2022-08-19T02:10:50;18.00;97.90
9448;DHT22;4762;48.128;11.376;2022-08-19T02:12:53;18.00;98.10
9448;DHT22;4762;48.128;11.376;2022-08-19T02:14:58;18.00;97.70
9448;DHT22;4762;48.128;11.376;2022-08-19T02:17:01;18.00;97.80
9448;DHT22;4762;48.128;11.376;2022-08-19T02:19:03;18.00;97.70
9448;DHT22;4762;48.128;11.376;2022-08-19T02:21:08;18.00;97.70
9448;DHT22;4762;48.128;11.376;2022-08-19T02:23:11;18.10;97.50
9448;DHT22;4762;48.128;11.376;2022-08-19T02:25:14;18.20;97.00
9448;DHT22;4762;48.128;11.376;2022-08-19T02:27:16;18.30;96.60
9448;DHT22;4762;48.128;11.376;2022-08-19T02:29:19;18.20;96.60
9448;DHT22;4762;48.128;11.376;2022-08-19T02:31:22;18.30;96.70
9448;DHT22;4762;48.128;11.376;2022-08-19T02:33:24;18.30;96.80
9448;DHT22;4762;48.128;11.376;2022-08-19T02:35:27;18.40;96.60
9448;DHT22;4762;48.128;11.376;2022-08-19T02:37:29;18.40;96.50
9448;DHT22;4762;48.128;11.376;2022-08-19T02:39:37;18.40;96.80
9448;DHT22;4762;48.128;11.376;2022-08-19T02:41:39;18.10;97.10
9448;DHT22;4762;48.128;11.376;2022-08-19T02:43:42;18.30;97.10
9448;DHT22;4762;48.128;11.376;2022-08-19T02:45:45;18.20;97.20
9448;DHT22;4762;48.128;11.376;2022-08-19T02:47:48;18.20;97.00
9448;DHT22;4762;48.128;11.376;2022-08-19T02:49:50;18.10;97.10
9448;DHT22;4762;48.128;11.376;2022-08-19T02:51:53;18.10;97.20
9448;DHT22;4762;48.128;11.376;2022-08-19T02:53:56;18.20;97.10
9448;DHT22;4762;48.128;11.376;2022-08-19T02:55:58;18.10;97.50
9448;DHT22;4762;48.128;11.376;2022-08-19T02:58:01;18.10;97.70
9448;DHT22;4762;48.128;11.376;2022-08-19T03:00:06;18.10;97.70
9448;DHT22;4762;48.128;11.376;2022-08-19T03:02:09;18.10;97.60
9448;DHT22;4762;48.128;11.376;2022-08-19T03:04:14;18.10;97.60
9448;DHT22;4762;48.128;11.376;2022-08-19T03:06:16;18.30;97.20
9448;DHT22;4762;48.128;11.376;2022-08-19T03:08:18;18.20;96.70
9448;DHT22;4762;48.128;11.376;2022-08-19T03:10:21;18.10;97.20
9448;DHT22;4762;48.128;11.376;2022-08-19T03:12:23;18.10;97.40
9448;DHT22;4762;48.128;11.376;2022-08-19T03:14:26;18.00;97.40
9448;DHT22;4762;48.128;11.376;2022-08-19T03:16:30;18.00;97.60
9448;DHT22;4762;48.128;11.376;2022-08-19T03:18:43;18.10;97.50
9448;DHT22;4762;48.128;11.376;2022-08-19T03:20:48;18.10;97.20
9448;DHT22;4762;48.128;11.376;2022-08-19T03:22:50;18.10;97.50
9448;DHT22;4762;48.128;11.376;2022-08-19T03:24:53;18.00;97.50
9448;DHT22;4762;48.128;11.376;2022-08-19T03:26:57;18.00;97.70
9448;DHT22;4762;48.128;11.376;2022-08-19T03:29:02;18.00;97.70
9448;DHT22;4762;48.128;11.376;2022-08-19T03:31:07;18.10;97.60
9448;DHT22;4762;48.128;11.376;2022-08-19T03:33:09;18.10;97.70
9448;DHT22;4762;48.128;11.376;2022-08-19T03:35:11;18.20;97.10
9448;DHT22;4762;48.128;11.376;2022-08-19T03:37:17;18.10;97.60
9448;DHT22;4762;48.128;11.376;2022-08-19T03:39:19;18.20;97.00
9448;DHT22;4762;48.128;11.376;2022-08-19T03:41:25;18.20;96.70
9448;DHT22;4762;48.128;11.376;2022-08-19T03:43:27;18.20;96.80
9448;DHT22;4762;48.128;11.376;2022-08-19T03:45:33;18.10;97.30
9448;DHT22;4762;48.128;11.376;2022-08-19T03:47:44;18.10;97.50
9448;DHT22;4762;48.128;11.376;2022-08-19T03:49:47;18.40;96.70
9448;DHT22;4762;48.128;11.376;2022-08-19T03:51:51;18.20;96.80
9448;DHT22;4762;48.128;11.376;2022-08-19T03:53:55;18.10;97.40
9448;DHT22;4762;48.128;11.376;2022-08-19T03:55:57;18.10;97.50
9448;DHT22;4762;48.128;11.376;2022-08-19T03:58:00;18.10;97.50
9448;DHT22;4762;48.128;11.376;2022-08-19T04:00:04;18.00;97.50
9448;DHT22;4762;48.128;11.376;2022-08-19T04:02:09;18.20;97.30
9448;DHT22;4762;48.128;11.376;2022-08-19T04:04:14;18.20;97.20
9448;DHT22;4762;48.128;11.376;2022-08-19T04:06:17;18.10;97.80
9448;DHT22;4762;48.128;11.376;2022-08-19T04:11:06;18.00;97.80
9448;DHT22;4762;48.128;11.376;2022-08-19T04:13:07;18.00;98.00
9448;DHT22;4762;48.128;11.376;2022-08-19T04:15:10;18.00;97.90
9448;DHT22;4762;48.128;11.376;2022-08-19T04:17:13;18.00;97.80
9448;DHT22;4762;48.128;11.376;2022-08-19T04:19:16;18.00;98.00
9448;DHT22;4762;48.128;11.376;2022-08-19T04:21:21;18.10;98.30
9448;DHT22;4762;48.128;11.376;2022-08-19T04:35:50;18.40;97.10
9448;DHT22;4762;48.128;11.376;2022-08-19T04:37:54;18.30;97.10
9448;DHT22;4762;48.128;11.376;2022-08-19T04:39:57;18.20;97.40
9448;DHT22;4762;48.128;11.376;2022-08-19T04:42:05;18.30;96.90
9448;DHT22;4762;48.128;11.376;2022-08-19T04:44:13;18.10;97.90
9448;DHT22;4762;48.128;11.376;2022-08-19T04:46:16;18.20;97.30
9448;DHT22;4762;48.128;11.376;2022-08-19T04:48:20;18.40;97.30
9448;DHT22;4762;48.128;11.376;2022-08-19T04:50:22;18.30;97.40
9448;DHT22;4762;48.128;11.376;2022-08-19T04:52:27;18.40;96.80
9448;DHT22;4762;48.128;11.376;2022-08-19T04:54:30;18.40;96.80
9448;DHT22;4762;48.128;11.376;2022-08-19T04:56:33;18.50;96.60
9448;DHT22;4762;48.128;11.376;2022-08-19T04:58:36;18.50;96.50
9448;DHT22;4762;48.128;11.376;2022-08-19T05:00:39;18.60;96.50
9448;DHT22;4762;48.128;11.376;2022-08-19T05:02:40;18.40;96.50
9448;DHT22;4762;48.128;11.376;2022-08-19T05:04:44;18.50;96.60
9448;DHT22;4762;48.128;11.376;2022-08-19T05:06:47;18.60;96.40
9448;DHT22;4762;48.128;11.376;2022-08-19T05:08:50;18.50;97.00
9448;DHT22;4762;48.128;11.376;2022-08-19T05:10:52;18.50;96.50
9448;DHT22;4762;48.128;11.376;2022-08-19T05:12:55;18.40;96.20
9448;DHT22;4762;48.128;11.376;2022-08-19T05:14:57;18.30;96.50
9448;DHT22;4762;48.128;11.376;2022-08-19T05:17:02;18.50;96.50
9448;DHT22;4762;48.128;11.376;2022-08-19T05:19:04;18.60;96.20
9448;DHT22;4762;48.128;11.376;2022-08-19T05:21:22;18.60;95.90
9448;DHT22;4762;48.128;11.376;2022-08-19T05:23:30;18.60;96.30
9448;DHT22;4762;48.128;11.376;2022-08-19T05:25:33;18.60;96.50
9448;DHT22;4762;48.128;11.376;2022-08-19T05:27:35;18.70;96.00
9448;DHT22;4762;48.128;11.376;2022-08-19T05:29:39;18.60;96.10
9448;DHT22;4762;48.128;11.376;2022-08-19T05:31:44;18.60;96.10
9448;DHT22;4762;48.128;11.376;2022-08-19T05:33:51;18.60;96.10
9448;DHT22;4762;48.128;11.376;2022-08-19T05:35:55;18.60;96.20
9448;DHT22;4762;48.128;11.376;2022-08-19T05:37:59;18.70;96.00
9448;DHT22;4762;48.128;11.376;2022-08-19T05:40:03;18.70;96.10
9448;DHT22;4762;48.128;11.376;2022-08-19T05:42:08;18.80;95.90
9448;DHT22;4762;48.128;11.376;2022-08-19T05:44:10;18.80;96.00
9448;DHT22;4762;48.128;11.376;2022-08-19T05:46:18;18.80;96.10
9448;DHT22;4762;48.128;11.376;2022-08-19T05:48:19;18.70;95.90
9448;DHT22;4762;48.128;11.376;2022-08-19T05:50:22;18.60;95.80
9448;DHT22;4762;48.128;11.376;2022-08-19T05:52:25;18.70;95.90
9448;DHT22;4762;48.128;11.376;2022-08-19T05:54:28;18.70;96.00
9448;DHT22;4762;48.128;11.376;2022-08-19T05:56:37;18.80;95.70
9448;DHT22;4762;48.128;11.376;2022-08-19T06:15:56;18.90;96.40
9448;DHT22;4762;48.128;11.376;2022-08-19T06:17:58;18.90;96.30
9448;DHT22;4762;48.128;11.376;2022-08-19T06:20:07;18.90;95.90
9448;DHT22;4762;48.128;11.376;2022-08-19T06:22:09;19.00;95.30
9448;DHT22;4762;48.128;11.376;2022-08-19T06:24:12;19.10;95.30
9448;DHT22;4762;48.128;11.376;2022-08-19T06:26:15;19.20;95.90
9448;DHT22;4762;48.128;11.376;2022-08-19T06:28:16;19.10;94.80
9448;DHT22;4762;48.128;11.376;2022-08-19T06:30:18;19.00;94.90
9448;DHT22;4762;48.128;11.376;2022-08-19T06:32:21;18.80;95.30
9448;DHT22;4762;48.128;11.376;2022-08-19T06:34:23;18.70;95.70
9448;DHT22;4762;48.128;11.376;2022-08-19T06:36:31;18.90;95.90
9448;DHT22;4762;48.128;11.376;2022-08-19T06:38:31;18.80;95.60
9448;DHT22;4762;48.128;11.376;2022-08-19T06:40:35;18.90;95.70
9448;DHT22;4762;48.128;11.376;2022-08-19T06:42:38;18.80;95.20
9448;DHT22;4762;48.128;11.376;2022-08-19T06:44:41;18.80;96.10
9448;DHT22;4762;48.128;11.376;2022-08-19T06:46:43;18.90;95.70
9448;DHT22;4762;48.128;11.376;2022-08-19T06:48:46;19.00;96.00
9448;DHT22;4762;48.128;11.376;2022-08-19T06:50:48;18.90;95.50
9448;DHT22;4762;48.128;11.376;2022-08-19T06:52:50;18.80;95.80
9448;DHT22;4762;48.128;11.376;2022-08-19T06:54:54;18.90;96.00
9448;DHT22;4762;48.128;11.376;2022-08-19T06:56:57;18.90;96.00
9448;DHT22;4762;48.128;11.376;2022-08-19T06:59:02;19.00;96.20
9448;DHT22;4762;48.128;11.376;2022-08-19T07:01:05;19.10;96.10
9448;DHT22;4762;48.128;11.376;2022-08-19T07:03:07;19.30;96.90
9448;DHT22;4762;48.128;11.376;2022-08-19T07:05:10;19.10;95.60
9448;DHT22;4762;48.128;11.376;2022-08-19T07:07:13;19.40;95.60
9448;DHT22;4762;48.128;11.376;2022-08-19T07:09:15;19.30;95.50
9448;DHT22;4762;48.128;11.376;2022-08-19T07:11:17;19.30;95.90
9448;DHT22;4762;48.128;11.376;2022-08-19T07:13:20;19.20;95.70
9448;DHT22;4762;48.128;11.376;2022-08-19T07:15:22;19.40;95.90
9448;DHT22;4762;48.128;11.376;2022-08-19T07:17:25;19.30;96.20
9448;DHT22;4762;48.128;11.376;2022-08-19T07:19:32;19.20;95.30
9448;DHT22;4762;48.128;11.376;2022-08-19T07:21:40;19.50;95.70
9448;DHT22;4762;48.128;11.376;2022-08-19T07:23:44;19.30;95.50
9448;DHT22;4762;48.128;11.376;2022-08-19T07:25:46;19.40;96.00
9448;DHT22;4762;48.128;11.376;2022-08-19T07:27:49;19.40;94.80
9448;DHT22;4762;48.128;11.376;2022-08-19T07:29:52;19.30;94.50
9448;DHT22;4762;48.128;11.376;2022-08-19T07:31:56;19.30;95.60
9448;DHT22;4762;48.128;11.376;2022-08-19T07:34:00;19.40;94.90
9448;DHT22;4762;48.128;11.376;2022-08-19T07:36:04;19.40;94.10
9448;DHT22;4762;48.128;11.376;2022-08-19T07:38:07;19.50;95.10
9448;DHT22;4762;48.128;11.376;2022-08-19T07:40:10;19.70;95.20
9448;DHT22;4762;48.128;11.376;2022-08-19T07:42:13;19.70;95.30
9448;DHT22;4762;48.128;11.376;2022-08-19T07:44:16;19.90;96.60
9448;DHT22;4762;48.128;11.376;2022-08-19T07:46:19;19.60;95.40
9448;DHT22;4762;48.128;11.376;2022-08-19T07:48:25;19.70;96.60
9448;DHT22;4762;48.128;11.376;2022-08-19T07:50:27;19.50;96.80
9448;DHT22;4762;48.128;11.376;2022-08-19T07:52:30;19.70;97.60
9448;DHT22;4762;48.128;11.376;2022-08-19T07:54:33;20.00;97.30
9448;DHT22;4762;48.128;11.376;2022-08-19T07:56:34;20.20;96.60
9448;DHT22;4762;48.128;11.376;2022-08-19T07:58:37;20.00;97.20
9448;DHT22;4762;48.128;11.376;2022-08-19T08:00:39;19.70;96.20
9448;DHT22;4762;48.128;11.376;2022-08-19T08:02:44;19.40;96.80
9448;DHT22;4762;48.128;11.376;2022-08-19T08:04:48;19.60;98.20
9448;DHT22;4762;48.128;11.376;2022-08-19T08:06:57;19.90;98.70
9448;DHT22;4762;48.128;11.376;2022-08-19T08:09:05;19.80;97.10
9448;DHT22;4762;48.128;11.376;2022-08-19T08:11:17;19.70;97.30
9448;DHT22;4762;48.128;11.376;2022-08-19T08:13:19;19.70;96.00
9448;DHT22;4762;48.128;11.376;2022-08-19T08:15:21;19.70;97.50
9448;DHT22;4762;48.128;11.376;2022-08-19T08:34:42;19.40;96.70
9448;DHT22;4762;48.128;11.376;2022-08-19T08:36:45;19.40;97.10
9448;DHT22;4762;48.128;11.376;2022-08-19T08:38:47;19.30;96.80
9448;DHT22;4762;48.128;11.376;2022-08-19T08:40:50;19.30;96.80
9448;DHT22;4762;48.128;11.376;2022-08-19T08:43:07;19.10;97.00
9448;DHT22;4762;48.128;11.376;2022-08-19T08:45:12;19.10;97.50
9448;DHT22;4762;48.128;11.376;2022-08-19T08:47:14;19.20;97.00
9448;DHT22;4762;48.128;11.376;2022-08-19T08:51:51;19.20;97.40
9448;DHT22;4762;48.128;11.376;2022-08-19T08:53:51;19.30;98.30
9448;DHT22;4762;48.128;11.376;2022-08-19T08:55:53;19.30;97.30
9448;DHT22;4762;48.128;11.376;2022-08-19T08:58:01;19.20;97.90
9448;DHT22;4762;48.128;11.376;2022-08-19T09:00:04;19.40;97.40
9448;DHT22;4762;48.128;11.376;2022-08-19T09:02:04;19.40;96.90
9448;DHT22;4762;48.128;11.376;2022-08-19T09:04:06;19.30;97.60
9448;DHT22;4762;48.128;11.376;2022-08-19T09:08:26;19.30;98.20
9448;DHT22;4762;48.128;11.376;2022-08-19T09:10:44;19.30;97.80
9448;DHT22;4762;48.128;11.376;2022-08-19T09:12:48;19.20;97.90
9448;DHT22;4762;48.128;11.376;2022-08-19T09:14:50;19.10;98.20
9448;DHT22;4762;48.128;11.376;2022-08-19T09:16:50;19.10;98.50
9448;DHT22;4762;48.128;11.376;2022-08-19T09:18:55;19.20;98.90
9448;DHT22;4762;48.128;11.376;2022-08-19T09:20:57;19.20;98.70
9448;DHT22;4762;48.128;11.376;2022-08-19T09:23:02;19.30;98.90
9448;DHT22;4762;48.128;11.376;2022-08-19T09:25:14;19.30;98.50
9448;DHT22;4762;48.128;11.376;2022-08-19T09:27:15;19.40;99.10
9448;DHT22;4762;48.128;11.376;2022-08-19T09:29:18;19.30;98.80
9448;DHT22;4762;48.128;11.376;2022-08-19T09:31:22;19.30;98.80
9448;DHT22;4762;48.128;11.376;2022-08-19T09:33:23;19.20;99.40
9448;DHT22;4762;48.128;11.376;2022-08-19T09:35:27;19.00;99.90
9448;DHT22;4762;48.128;11.376;2022-08-19T09:37:30;19.00;99.90
9448;DHT22;4762;48.128;11.376;2022-08-19T09:39:32;18.90;99.90
9448;DHT22;4762;48.128;11.376;2022-08-19T09:41:37;18.90;99.90
9448;DHT22;4762;48.128;11.376;2022-08-19T09:43:51;19.10;99.90
9448;DHT22;4762;48.128;11.376;2022-08-19T09:45:55;19.00;99.90
9448;DHT22;4762;48.128;11.376;2022-08-19T09:48:02;19.00;99.60
9448;DHT22;4762;48.128;11.376;2022-08-19T09:50:07;19.00;99.90
9448;DHT22;4762;48.128;11.376;2022-08-19T09:52:10;18.90;99.90
9448;DHT22;4762;48.128;11.376;2022-08-19T09:54:16;19.10;99.90
9448;DHT22;4762;48.128;11.376;2022-08-19T09:56:20;19.20;99.90
9448;DHT22;4762;48.128;11.376;2022-08-19T09:58:25;19.20;99.90
9448;DHT22;4762;48.128;11.376;2022-08-19T10:00:29;19.20;99.90
9448;DHT22;4762;48.128;11.376;2022-08-19T10:02:40;19.30;99.60
9448;DHT22;4762;48.128;11.376;2022-08-19T10:04:45;19.30;99.60
9448;DHT22;4762;48.128;11.376;2022-08-19T10:06:55;19.30;99.90
9448;DHT22;4762;48.128;11.376;2022-08-19T10:08:56;19.40;99.90
9448;DHT22;4762;48.128;11.376;2022-08-19T10:13:45;18.80;99.90
9448;DHT22;4762;48.128;11.376;2022-08-19T11:37:39;21.10;94.30
9448;DHT22;4762;48.128;11.376;2022-08-19T11:39:53;20.90;92.80
9448;DHT22;4762;48.128;11.376;2022-08-19T11:59:48;20.90;94.30
9448;DHT22;4762;48.128;11.376;2022-08-19T12:01:50;21.30;93.40
9448;DHT22;4762;48.128;11.376;2022-08-19T12:03:54;21.40;92.20
9448;DHT22;4762;48.128;11.376;2022-08-19T12:05:57;21.00;92.40
9448;DHT22;4762;48.128;11.376;2022-08-19T12:08:00;20.90;94.00
9448;DHT22;4762;48.128;11.376;2022-08-19T12:10:06;21.20;92.20
9448;DHT22;4762;48.128;11.376;2022-08-19T12:12:10;21.20;90.50
9448;DHT22;4762;48.128;11.376;2022-08-19T12:14:12;21.10;90.30
9448;DHT22;4762;48.128;11.376;2022-08-19T12:16:18;21.00;94.80
9448;DHT22;4762;48.128;11.376;2022-08-19T12:18:20;20.80;91.20
9448;DHT22;4762;48.128;11.376;2022-08-19T12:20:24;20.50;92.00
9448;DHT22;4762;48.128;11.376;2022-08-19T12:22:28;20.90;92.20
9448;DHT22;4762;48.128;11.376;2022-08-19T12:24:31;21.20;92.70
9448;DHT22;4762;48.128;11.376;2022-08-19T12:26:35;20.90;91.30
9448;DHT22;4762;48.128;11.376;2022-08-19T12:28:37;21.10;90.90
9448;DHT22;4762;48.128;11.376;2022-08-19T12:30:48;21.10;89.50
9448;DHT22;4762;48.128;11.376;2022-08-19T12:32:50;21.30;89.10
9448;DHT22;4762;48.128;11.376;2022-08-19T12:34:52;21.40;87.90
9448;DHT22;4762;48.128;11.376;2022-08-19T12:36:55;21.40;89.30
9448;DHT22;4762;48.128;11.376;2022-08-19T12:38:58;21.70;89.20
9448;DHT22;4762;48.128;11.376;2022-08-19T12:41:00;21.70;90.10
9448;DHT22;4762;48.128;11.376;2022-08-19T12:43:03;21.90;89.10
9448;DHT22;4762;48.128;11.376;2022-08-19T12:45:06;21.90;90.10
9448;DHT22;4762;48.128;11.376;2022-08-19T12:47:09;22.10;88.90
9448;DHT22;4762;48.128;11.376;2022-08-19T12:49:12;21.50;89.20
9448;DHT22;4762;48.128;11.376;2022-08-19T12:51:16;21.40;90.00
9448;DHT22;4762;48.128;11.376;2022-08-19T12:53:18;21.30;89.30
9448;DHT22;4762;48.128;11.376;2022-08-19T12:55:21;21.10;89.80
9448;DHT22;4762;48.128;11.376;2022-08-19T12:57:24;20.90;90.40
9448;DHT22;4762;48.128;11.376;2022-08-19T12:59:26;21.20;90.80
9448;DHT22;4762;48.128;11.376;2022-08-19T13:01:28;21.30;90.70
9448;DHT22;4762;48.128;11.376;2022-08-19T13:03:31;21.40;90.00
9448;DHT22;4762;48.128;11.376;2022-08-19T13:05:34;21.30;89.40
9448;DHT22;4762;48.128;11.376;2022-08-19T13:07:37;21.30;89.90
9448;DHT22;4762;48.128;11.376;2022-08-19T13:09:45;21.30;89.20
9448;DHT22;4762;48.128;11.376;2022-08-19T13:11:55;21.30;90.00
9448;DHT22;4762;48.128;11.376;2022-08-19T13:13:57;21.20;90.30
9448;DHT22;4762;48.128;11.376;2022-08-19T13:16:00;21.20;90.30
9448;DHT22;4762;48.128;11.376;2022-08-19T13:18:02;21.40;90.80
9448;DHT22;4762;48.128;11.376;2022-08-19T13:20:07;21.00;89.70
9448;DHT22;4762;48.128;11.376;2022-08-19T13:22:09;20.70;91.50
9448;DHT22;4762;48.128;11.376;2022-08-19T13:24:12;20.80;91.20
9448;DHT22;4762;48.128;11.376;2022-08-19T13:26:15;21.00;89.80
9448;DHT22;4762;48.128;11.376;2022-08-19T13:28:18;20.90;91.10
9448;DHT22;4762;48.128;11.376;2022-08-19T13:30:21;20.70;90.60
9448;DHT22;4762;48.128;11.376;2022-08-19T13:32:30;21.10;90.40
9448;DHT22;4762;48.128;11.376;2022-08-19T13:34:39;21.20;91.10
9448;DHT22;4762;48.128;11.376;2022-08-19T13:36:42;21.20;89.70
9448;DHT22;4762;48.128;11.376;2022-08-19T13:38:45;21.30;89.50
9448;DHT22;4762;48.128;11.376;2022-08-19T13:40:47;21.30;89.10
9448;DHT22;4762;48.128;11.376;2022-08-19T13:42:50;21.10;89.60
9448;DHT22;4762;48.128;11.376;2022-08-19T13:44:53;21.30;89.70
9448;DHT22;4762;48.128;11.376;2022-08-19T13:46:55;21.70;88.00
9448;DHT22;4762;48.128;11.376;2022-08-19T13:48:57;21.60;88.90
9448;DHT22;4762;48.128;11.376;2022-08-19T13:50:59;21.20;88.70
9448;DHT22;4762;48.128;11.376;2022-08-19T13:53:02;21.20;89.00
9448;DHT22;4762;48.128;11.376;2022-08-19T13:55:06;21.20;89.40
9448;DHT22;4762;48.128;11.376;2022-08-19T13:57:08;21.50;89.80
9448;DHT22;4762;48.128;11.376;2022-08-19T13:59:10;21.60;88.30
9448;DHT22;4762;48.128;11.376;2022-08-19T14:01:18;21.60;88.80
9448;DHT22;4762;48.128;11.376;2022-08-19T14:03:15;21.50;89.10
9448;DHT22;4762;48.128;11.376;2022-08-19T14:05:18;21.70;89.30
9448;DHT22;4762;48.128;11.376;2022-08-19T14:07:21;21.60;88.60
9448;DHT22;4762;48.128;11.376;2022-08-19T14:09:24;21.40;88.00
9448;DHT22;4762;48.128;11.376;2022-08-19T14:11:26;21.20;88.70
9448;DHT22;4762;48.128;11.376;2022-08-19T14:13:29;21.40;88.30
9448;DHT22;4762;48.128;11.376;2022-08-19T14:15:31;21.40;88.90
9448;DHT22;4762;48.128;11.376;2022-08-19T14:17:33;21.20;88.90
9448;DHT22;4762;48.128;11.376;2022-08-19T14:19:36;21.60;89.30
9448;DHT22;4762;48.128;11.376;2022-08-19T14:21:39;21.90;88.40
9448;DHT22;4762;48.128;11.376;2022-08-19T14:23:41;21.70;88.50
9448;DHT22;4762;48.128;11.376;2022-08-19T14:25:44;21.40;88.30
9448;DHT22;4762;48.128;11.376;2022-08-19T14:27:47;21.10;89.10
9448;DHT22;4762;48.128;11.376;2022-08-19T14:29:52;20.90;89.10
9448;DHT22;4762;48.128;11.376;2022-08-19T14:31:54;21.00;89.40
9448;DHT22;4762;48.128;11.376;2022-08-19T14:33:56;20.90;89.50
9448;DHT22;4762;48.128;11.376;2022-08-19T14:35:59;21.10;89.00
9448;DHT22;4762;48.128;11.376;2022-08-19T14:38:04;21.20;88.60
9448;DHT22;4762;48.128;11.376;2022-08-19T14:40:07;21.00;89.60
9448;DHT22;4762;48.128;11.376;2022-08-19T14:42:10;21.00;89.10
9448;DHT22;4762;48.128;11.376;2022-08-19T14:44:13;20.90;88.80
9448;DHT22;4762;48.128;11.376;2022-08-19T14:46:17;20.70;90.60
9448;DHT22;4762;48.128;11.376;2022-08-19T14:48:18;20.90;89.60
9448;DHT22;4762;48.128;11.376;2022-08-19T14:50:22;21.00;90.20
9448;DHT22;4762;48.128;11.376;2022-08-19T14:52:24;21.00;90.00
9448;DHT22;4762;48.128;11.376;2022-08-19T14:54:27;20.70;90.10
9448;DHT22;4762;48.128;11.376;2022-08-19T14:56:29;20.80;90.50
9448;DHT22;4762;48.128;11.376;2022-08-19T14:58:32;20.80;90.20
9448;DHT22;4762;48.128;11.376;2022-08-19T15:00:34;20.80;90.10
9448;DHT22;4762;48.128;11.376;2022-08-19T15:02:37;20.80;90.90
9448;DHT22;4762;48.128;11.376;2022-08-19T15:04:39;21.00;89.10
9448;DHT22;4762;48.128;11.376;2022-08-19T15:06:41;20.90;89.40
9448;DHT22;4762;48.128;11.376;2022-08-19T15:08:45;20.80;89.80
9448;DHT22;4762;48.128;11.376;2022-08-19T15:10:47;21.00;89.80
9448;DHT22;4762;48.128;11.376;2022-08-19T15:12:50;21.00;89.30
9448;DHT22;4762;48.128;11.376;2022-08-19T15:14:52;21.00;89.20
9448;DHT22;4762;48.128;11.376;2022-08-19T15:16:55;21.00;89.20
9448;DHT22;4762;48.128;11.376;2022-08-19T15:18:58;20.90;89.50
9448;DHT22;4762;48.128;11.376;2022-08-19T15:21:00;21.00;89.80
9448;DHT22;4762;48.128;11.376;2022-08-19T15:23:02;21.00;89.40
9448;DHT22;4762;48.128;11.376;2022-08-19T15:25:05;20.90;90.00
9448;DHT22;4762;48.128;11.376;2022-08-19T15:27:07;20.70;90.00
9448;DHT22;4762;48.128;11.376;2022-08-19T15:29:11;20.50;90.50
9448;DHT22;4762;48.128;11.376;2022-08-19T15:31:15;20.40;90.90
9448;DHT22;4762;48.128;11.376;2022-08-19T15:33:15;20.50;90.40
9448;DHT22;4762;48.128;11.376;2022-08-19T15:35:18;20.70;90.10
9448;DHT22;4762;48.128;11.376;2022-08-19T15:37:20;20.50;90.80
9448;DHT22;4762;48.128;11.376;2022-08-19T15:39:23;20.40;90.90
9448;DHT22;4762;48.128;11.376;2022-08-19T15:41:27;20.50;90.80
9448;DHT22;4762;48.128;11.376;2022-08-19T15:43:29;20.50;91.10
9448;DHT22;4762;48.128;11.376;2022-08-19T15:45:32;20.40;90.40
9448;DHT22;4762;48.128;11.376;2022-08-19T15:47:36;20.20;90.90
9448;DHT22;4762;48.128;11.376;2022-08-19T15:49:38;20.10;91.30
9448;DHT22;4762;48.128;11.376;2022-08-19T15:51:40;19.90;91.30
9448;DHT22;4762;48.128;11.376;2022-08-19T15:53:43;20.00;91.80
9448;DHT22;4762;48.128;11.376;2022-08-19T15:55:46;19.90;92.20
9448;DHT22;4762;48.128;11.376;2022-08-19T15:57:48;19.90;92.00
9448;DHT22;4762;48.128;11.376;2022-08-19T15:59:57;19.90;92.00
9448;DHT22;4762;48.128;11.376;2022-08-19T16:02:05;19.80;92.20
9448;DHT22;4762;48.128;11.376;2022-08-19T16:04:13;19.70;93.40
9448;DHT22;4762;48.128;11.376;2022-08-19T16:06:21;19.60;94.70
9448;DHT22;4762;48.128;11.376;2022-08-19T16:08:28;19.60;95.10
9448;DHT22;4762;48.128;11.376;2022-08-19T16:10:30;19.50;95.80
9448;DHT22;4762;48.128;11.376;2022-08-19T16:12:33;19.50;96.00
9448;DHT22;4762;48.128;11.376;2022-08-19T16:14:35;19.30;96.10
9448;DHT22;4762;48.128;11.376;2022-08-19T16:16:37;19.30;96.50
9448;DHT22;4762;48.128;11.376;2022-08-19T16:18:40;19.30;96.30
9448;DHT22;4762;48.128;11.376;2022-08-19T16:20:42;19.20;95.70
9448;DHT22;4762;48.128;11.376;2022-08-19T16:22:45;19.10;97.00